Time;durP1;ratioP1;P1;durP2;ratioP2;P2;SDS_P1;SDS_P2;PMS_P1;PMS_P2;Temp;Humidity;BMP_temperature;BMP_pressure;BME280_temperature;BME280_humidity;BME280_pressure;Samples;Min_cycle;Max_cycle;Signal;HPM_P1;HPM_P2
2023/09/12 07:23:12;;;;;;;22.05;19.75;;;;;;;-145.79;91.28;76688.44;5288876;28;20727;-67
2023/09/12 07:25:43;;;;;;;23.52;21.02;;;;;;;-145.79;92.51;76699.06;5289283;28;20040;-69
2023/09/12 07:28:15;;;;;;;49.50;44.83;;;;;;;-145.79;92.87;76673.63;5292501;28;20031;-68
2023/09/12 07:30:46;;;;;;;24.17;21.60;;;;;;;-145.79;93.14;76673.63;5290567;28;20035;-67
2023/09/12 07:33:18;;;;;;;23.20;20.80;;;;;;;-145.79;93.32;76682.09;5287253;28;20032;-67
2023/09/12 07:35:52;;;;;;;22.88;20.38;;;;;;;-145.79;93.52;76677.84;5289275;28;20516;-67
2023/09/12 07:38:23;;;;;;;22.75;20.52;;;;;;;-145.79;93.26;76694.81;5287985;28;20032;-67
2023/09/12 07:40:55;;;;;;;22.38;19.55;;;;;;;-145.79;93.58;76682.09;5289301;28;20028;-67
2023/09/12 07:43:26;;;;;;;21.35;19.15;;;;;;;-145.79;93.40;76669.38;5287895;28;20039;-67
2023/09/12 07:45:58;;;;;;;21.10;18.92;;;;;;;-145.79;92.60;76669.38;5289087;28;20468;-68
2023/09/12 07:48:29;;;;;;;22.75;20.27;;;;;;;-145.79;91.75;76656.66;5290865;28;20073;-67
2023/09/12 07:51:01;;;;;;;20.35;18.25;;;;;;;-145.79;91.70;76641.84;5283379;28;20484;-69
2023/09/12 07:53:32;;;;;;;21.80;19.50;;;;;;;-145.79;92.41;76643.94;5289861;28;20211;-72
2023/09/12 07:56:03;;;;;;;22.05;19.33;;;;;;;-145.79;91.34;76648.19;5281086;28;20093;-69
2023/09/12 07:58:35;;;;;;;20.60;18.60;;;;;;;-145.79;90.21;76637.59;5287986;28;20488;-68
2023/09/12 08:01:08;;;;;;;27.15;24.35;;;;;;;-145.79;90.55;76641.84;5284885;28;20042;-70
2023/09/12 08:03:42;;;;;;;21.00;18.77;;;;;;;-145.79;90.42;76639.72;5287812;28;20101;-70
2023/09/12 08:06:14;;;;;;;19.70;17.73;;;;;;;-145.79;89.28;76627.00;5287930;28;20082;-70
2023/09/12 08:08:45;;;;;;;19.95;17.80;;;;;;;-145.79;89.82;76622.75;5276072;28;20104;-69
2023/09/12 08:11:16;;;;;;;19.42;17.15;;;;;;;-145.79;87.88;76622.75;5278130;28;20040;-70
2023/09/12 08:13:49;;;;;;;19.02;17.35;;;;;;;-145.79;88.89;76612.16;5291809;28;20082;-72
2023/09/12 08:16:20;;;;;;;18.33;16.38;;;;;;;-145.79;87.92;76605.81;5282747;28;20024;-70
2023/09/12 08:18:52;;;;;;;16.38;14.88;;;;;;;-145.79;88.07;76597.31;5281456;28;20725;-71
2023/09/12 08:21:23;;;;;;;16.90;15.15;;;;;;;-145.79;87.98;76597.31;5281848;28;20048;-70
2023/09/12 08:23:54;;;;;;;16.58;15.10;;;;;;;-145.79;88.26;76578.25;5286547;28;20111;-70
2023/09/12 08:26:26;;;;;;;16.55;14.80;;;;;;;-145.79;87.01;76588.84;5286780;28;20032;-70
2023/09/12 08:28:57;;;;;;;15.32;13.85;;;;;;;-145.79;87.44;76586.72;5286810;28;20063;-70
2023/09/12 08:31:29;;;;;;;16.42;14.07;;;;;;;-145.79;86.80;76605.81;5290676;28;20024;-69
2023/09/12 08:34:00;;;;;;;13.65;12.45;;;;;;;-145.79;86.48;76595.22;5277212;28;20055;-72
2023/09/12 08:36:31;;;;;;;15.20;13.05;;;;;;;-145.79;87.90;76588.84;5272206;28;20112;-71
2023/09/12 08:39:04;;;;;;;30.65;27.95;;;;;;;-145.79;87.86;76580.38;5275716;28;20012;-71
2023/09/12 08:41:36;;;;;;;14.93;13.63;;;;;;;-145.79;88.02;76580.38;5276683;28;20040;-71
2023/09/12 08:44:08;;;;;;;16.85;15.18;;;;;;;-145.79;88.96;76580.38;5260429;28;20483;-71
2023/09/12 08:46:42;;;;;;;14.20;12.82;;;;;;;-145.79;89.10;76561.28;5265406;28;20055;-71
2023/09/12 08:49:14;;;;;;;12.93;11.77;;;;;;;-145.79;88.10;76559.19;5271660;28;20033;-70
2023/09/12 08:51:45;;;;;;;13.73;12.43;;;;;;;-145.79;88.93;76563.41;5275792;28;20471;-71
2023/09/12 08:54:17;;;;;;;14.05;12.60;;;;;;;-145.79;88.58;76561.28;5274148;28;20036;-70
2023/09/12 08:56:48;;;;;;;12.20;11.10;;;;;;;-145.79;88.08;76557.06;5272231;28;20029;-71
2023/09/12 08:59:20;;;;;;;12.57;11.38;;;;;;;-145.79;87.63;76533.75;5275241;28;20059;-71
2023/09/12 09:01:52;;;;;;;10.60;9.60;;;;;;;-145.79;85.75;76523.16;5276433;28;20032;-71
2023/09/12 09:04:28;;;;;;;9.80;8.93;;;;;;;-145.79;85.50;76527.38;5265982;28;20025;-68
2023/09/12 09:07:01;;;;;;;9.13;8.25;;;;;;;-145.79;84.16;76531.63;5272255;28;20471;-71
2023/09/12 09:09:33;;;;;;;8.52;7.82;;;;;;;-145.79;83.27;76527.38;5274936;28;20031;-70
2023/09/12 09:12:08;;;;;;;13.40;12.10;;;;;;;-145.79;84.90;76525.28;5275192;28;20032;-69
2023/09/12 09:14:40;;;;;;;10.73;9.57;;;;;;;-145.79;85.52;76485.00;5270449;28;20020;-70
2023/09/12 09:17:12;;;;;;;16.95;15.15;;;;;;;-145.79;84.46;76512.56;5275928;28;20027;-71
2023/09/12 09:19:44;;;;;;;18.35;16.52;;;;;;;-145.79;84.85;76516.78;5271576;28;20028;-72
2023/09/12 09:22:16;;;;;;;18.05;16.17;;;;;;;-145.79;86.16;76489.25;5275853;28;20074;-70
2023/09/12 09:24:47;;;;;;;20.05;18.05;;;;;;;-145.79;85.79;76504.09;5270307;28;20033;-74
2023/09/12 09:27:34;;;;;;;20.90;18.45;;;;;;;-145.79;86.64;76508.31;5266032;28;20025;-72
2023/09/12 09:30:06;;;;;;;23.67;19.63;;;;;;;-145.79;86.08;76514.69;5270929;28;20028;-73
2023/09/12 09:32:37;;;;;;;18.92;16.90;;;;;;;-145.79;87.54;76474.41;5271305;28;20028;-74
2023/09/12 09:35:09;;;;;;;22.58;20.02;;;;;;;-145.79;86.30;76476.53;5275977;28;20059;-74
2023/09/12 09:37:41;;;;;;;25.60;21.80;;;;;;;-145.79;86.44;76468.06;5271787;28;20059;-74
2023/09/12 09:40:13;;;;;;;24.17;21.55;;;;;;;-145.79;84.56;76474.41;5270933;28;20051;-74
2023/09/12 09:42:44;;;;;;;29.73;26.58;;;;;;;-145.79;86.00;76453.22;5269500;28;20053;-72
2023/09/12 09:45:15;;;;;;;29.27;23.88;;;;;;;-145.79;83.80;76468.06;5274368;28;20357;-72
2023/09/12 09:47:50;;;;;;;24.60;21.95;;;;;;;-145.79;84.17;76451.09;5274492;28;20059;-74
2023/09/12 09:50:21;;;;;;;26.30;23.45;;;;;;;-145.79;84.22;76446.88;5271462;28;20067;-74
2023/09/12 09:52:55;;;;;;;24.88;22.02;;;;;;;-145.79;84.65;76427.78;5271261;28;20385;-74
2023/09/12 09:55:26;;;;;;;25.42;22.00;;;;;;;-145.79;83.48;76440.50;5264188;28;20104;-74
2023/09/12 09:57:58;;;;;;;24.63;20.92;;;;;;;-145.79;83.68;76429.91;5271026;28;20449;-74
2023/09/12 10:00:31;;;;;;;25.73;22.90;;;;;;;-145.79;83.99;76438.38;5273966;28;20021;-73
2023/09/12 10:03:06;;;;;;;26.20;23.02;;;;;;;-145.79;84.31;76436.28;5270674;28;20473;-74
2023/09/12 10:05:38;;;;;;;29.25;26.02;;;;;;;-145.79;84.33;76442.63;5263465;28;20040;-74
2023/09/12 10:08:11;;;;;;;24.05;20.67;;;;;;;-145.79;84.03;76412.97;5270722;28;20126;-74
2023/09/12 10:10:43;;;;;;;23.15;19.95;;;;;;;-145.79;83.26;76402.38;5261854;28;20095;-75
2023/09/12 10:13:16;;;;;;;21.40;19.13;;;;;;;-145.79;82.54;76406.59;5270931;28;20052;-73
2023/09/12 10:15:50;;;;;;;23.65;21.20;;;;;;;-145.79;82.26;76410.84;5264481;28;20025;-73
2023/09/12 10:18:25;;;;;;;19.33;16.73;;;;;;;-145.79;82.90;76393.88;5266975;28;20484;-73
2023/09/12 10:21:08;;;;;;;26.92;24.10;;;;;;;-145.79;83.25;76379.06;5266987;28;20074;-73
2023/09/12 10:23:44;;;;;;;26.05;23.25;;;;;;;-145.79;82.87;76385.41;5272444;28;20035;-73
2023/09/12 10:26:16;;;;;;;25.98;22.38;;;;;;;-145.79;82.51;76402.38;5274693;28;20399;-75
2023/09/12 10:28:48;;;;;;;24.70;22.10;;;;;;;-145.79;82.35;76398.13;5267576;28;20032;-73
2023/09/12 10:31:19;;;;;;;24.35;20.35;;;;;;;-145.79;81.65;76398.13;5270377;28;20074;-73
2023/09/12 10:33:51;;;;;;;21.25;19.08;;;;;;;-145.79;82.17;76368.47;5272176;28;20032;-74
2023/09/12 10:36:25;;;;;;;22.38;19.20;;;;;;;-145.79;81.60;76370.56;5273719;28;20025;-73
2023/09/12 10:38:59;;;;;;;24.83;21.38;;;;;;;-145.79;80.75;76383.28;5269503;28;20115;-74
2023/09/12 10:41:32;;;;;;;21.67;19.38;;;;;;;-145.79;80.25;76393.88;5270404;28;20020;-75
2023/09/12 10:44:14;;;;;;;19.08;17.08;;;;;;;-145.79;80.07;76368.47;5271918;28;20057;-75
2023/09/12 10:46:47;;;;;;;20.58;18.38;;;;;;;-145.79;79.47;76374.81;5265940;28;20025;-75
2023/09/12 10:49:19;;;;;;;21.75;18.38;;;;;;;-145.79;79.74;76343.03;5267818;28;20107;-74
2023/09/12 10:51:51;;;;;;;19.35;17.27;;;;;;;-145.79;78.15;76328.19;5269783;28;20170;-75
2023/09/12 10:54:25;;;;;;;18.85;15.93;;;;;;;-145.79;77.73;76321.84;5273706;28;20024;-75
2023/09/12 10:57:03;;;;;;;19.02;16.95;;;;;;;-145.79;77.97;76328.19;5273688;28;20029;-76
2023/09/12 10:59:38;;;;;;;18.90;17.00;;;;;;;-145.79;78.03;76330.31;5259971;28;20033;-75
2023/09/12 11:02:31;;;;;;;19.67;17.33;;;;;;;-145.79;78.66;76328.19;5256493;28;20037;-74
2023/09/12 11:05:05;;;;;;;26.90;22.63;;;;;;;-145.79;78.74;76334.56;5272461;28;20110;-74
2023/09/12 11:07:36;;;;;;;23.88;21.55;;;;;;;-145.79;78.89;76334.56;5265347;28;20027;-74
2023/09/12 11:10:18;;;;;;;19.40;17.40;;;;;;;-145.79;79.39;76317.59;5273780;28;20468;-74
2023/09/12 11:12:52;;;;;;;21.80;19.80;;;;;;;-145.79;77.93;76307.00;5267499;28;20277;-74
2023/09/12 11:15:26;;;;;;;19.90;17.90;;;;;;;-145.79;77.71;76296.41;5273467;28;20441;-75
2023/09/12 11:18:03;;;;;;;16.17;13.60;;;;;;;-145.79;74.43;76302.75;5266862;28;20072;-74
2023/09/12 11:20:52;;;;;;;15.30;13.75;;;;;;;-145.79;75.43;76277.34;5267503;28;20021;-75
2023/09/12 11:23:25;;;;;;;13.98;12.55;;;;;;;-145.79;73.77;76258.25;5273576;28;20044;-74
2023/09/12 11:26:05;;;;;;;17.63;15.93;;;;;;;-145.79;75.73;76256.16;5269332;28;20025;-73
2023/09/12 11:28:39;;;;;;;32.50;29.27;;;;;;;-145.79;77.69;76266.75;5267469;28;20499;-74
2023/09/12 11:31:10;;;;;;;33.55;30.23;;;;;;;-145.79;77.80;76264.63;5269011;28;20035;-74
2023/09/12 11:33:41;;;;;;;28.88;25.95;;;;;;;-145.79;77.83;76277.34;5263830;28;20022;-74
2023/09/12 11:36:13;;;;;;;29.30;26.27;;;;;;;-145.79;77.20;76268.84;5271174;28;20031;-74
2023/09/12 11:38:49;;;;;;;25.58;22.98;;;;;;;-145.79;77.48;76273.09;5269441;28;20025;-74
2023/09/12 11:41:39;;;;;;;24.77;22.33;;;;;;;-145.79;77.35;76266.75;5273979;28;20429;-74
2023/09/12 11:44:11;;;;;;;23.42;20.75;;;;;;;-145.79;77.33;76266.75;5256058;28;20029;-74
2023/09/12 11:46:43;;;;;;;21.05;18.88;;;;;;;-145.79;74.84;76275.22;5264581;28;20033;-73
2023/09/12 11:49:15;;;;;;;20.50;18.42;;;;;;;-145.79;73.46;76266.75;5269586;28;20525;-74
2023/09/12 11:51:54;;;;;;;18.08;16.45;;;;;;;-145.79;74.16;76228.59;5264568;28;20031;-74
2023/09/12 11:54:26;;;;;;;19.40;17.60;;;;;;;-145.79;73.13;76224.38;5269426;28;20036;-75
2023/09/12 11:56:59;;;;;;;20.08;18.15;;;;;;;-145.79;71.38;76215.88;5269589;28;20561;-75
2023/09/12 11:59:30;;;;;;;17.60;15.88;;;;;;;-145.79;70.59;76215.88;5260995;28;20032;-75
2023/09/12 12:02:06;;;;;;;20.15;18.10;;;;;;;-145.79;70.74;76198.94;5267171;28;20415;-75
2023/09/12 12:04:38;;;;;;;26.08;23.55;;;;;;;-145.79;70.19;76177.75;5261004;28;20082;-75
2023/09/12 12:07:11;;;;;;;19.98;17.95;;;;;;;-145.79;70.24;76158.66;5269222;28;20108;-74
2023/09/12 12:09:42;;;;;;;17.70;16.00;;;;;;;-145.79;69.84;76139.59;5271619;28;20025;-73
2023/09/12 12:12:14;;;;;;;18.35;16.67;;;;;;;-145.79;69.33;76148.06;5273284;28;20029;-73
2023/09/12 12:14:46;;;;;;;17.83;16.02;;;;;;;-145.79;68.94;76131.13;5264135;28;20016;-74
2023/09/12 12:17:17;;;;;;;14.55;13.10;;;;;;;-145.79;67.00;76114.19;5270080;28;20033;-74
2023/09/12 12:19:48;;;;;;;13.68;12.38;;;;;;;-145.79;65.68;76109.94;5273545;28;20044;-74
2023/09/12 12:22:20;;;;;;;16.42;14.98;;;;;;;-145.79;65.45;76095.09;5272110;28;20049;-75
2023/09/12 12:24:51;;;;;;;12.85;11.70;;;;;;;-145.79;64.45;76090.88;5277385;28;20033;-75
2023/09/12 12:27:22;;;;;;;13.98;12.52;;;;;;;-145.79;65.30;76088.75;5275677;28;20021;-74
2023/09/12 12:29:55;;;;;;;13.55;12.30;;;;;;;-145.79;64.28;76101.47;5263731;28;20047;-75
2023/09/12 12:32:26;;;;;;;15.38;13.93;;;;;;;-145.79;64.35;76105.69;5277053;28;20029;-74
2023/09/12 12:34:57;;;;;;;14.98;12.93;;;;;;;-145.79;64.80;76103.56;5271161;28;20029;-74
2023/09/12 12:37:32;;;;;;;16.02;14.43;;;;;;;-145.79;65.28;76114.19;5268928;28;20028;-73
2023/09/12 12:40:05;;;;;;;13.55;12.27;;;;;;;-145.79;64.50;76090.88;5269732;28;20433;-74
2023/09/12 12:42:46;;;;;;;17.20;15.45;;;;;;;-145.79;65.47;76076.03;5267563;28;20492;-74
2023/09/12 12:45:19;;;;;;;19.30;17.25;;;;;;;-145.79;65.43;76071.78;5258830;28;20025;-74
2023/09/12 12:47:55;;;;;;;18.58;16.67;;;;;;;-145.79;65.78;76056.97;5275064;28;20372;-73
2023/09/12 12:50:27;;;;;;;18.42;16.63;;;;;;;-145.79;65.12;76044.25;5275452;28;20031;-74
2023/09/12 12:52:58;;;;;;;19.33;17.42;;;;;;;-145.79;65.74;76063.31;5262523;28;20476;-73
2023/09/12 12:55:29;;;;;;;19.42;17.40;;;;;;;-145.79;66.85;76078.16;5248452;28;20506;-73
2023/09/12 12:58:03;;;;;;;18.13;16.38;;;;;;;-145.79;66.03;76071.78;5259427;28;20389;-74
2023/09/12 13:00:35;;;;;;;17.67;16.08;;;;;;;-145.79;66.06;76052.72;5268783;28;20370;-74
2023/09/12 13:03:06;;;;;;;20.88;18.50;;;;;;;-145.79;65.17;76059.09;5255575;28;20033;-74
2023/09/12 13:05:37;;;;;;;21.23;19.30;;;;;;;-145.79;65.12;76016.69;5265014;28;20029;-74
2023/09/12 13:08:08;;;;;;;24.38;22.02;;;;;;;-145.79;64.38;76033.66;5245552;28;20032;-73
2023/09/12 13:10:42;;;;;;;18.63;16.92;;;;;;;-145.79;64.26;76046.38;5269939;28;20116;-73
2023/09/12 13:13:13;;;;;;;14.70;13.32;;;;;;;-145.79;64.66;76044.25;5271805;28;20064;-74
2023/09/12 13:15:45;;;;;;;13.70;12.40;;;;;;;-145.79;63.14;76052.72;5275091;28;20076;-73
2023/09/12 13:18:16;;;;;;;14.13;12.73;;;;;;;-145.79;64.41;76056.97;5258890;28;20037;-74
2023/09/12 13:20:47;;;;;;;15.88;14.18;;;;;;;-145.79;64.89;76071.78;5274024;28;20025;-73
2023/09/12 13:23:18;;;;;;;16.15;14.60;;;;;;;-145.79;64.69;76078.16;5282664;28;20028;-73
2023/09/12 13:25:50;;;;;;;13.63;12.43;;;;;;;-145.79;65.06;76067.56;5271561;28;20551;-73
2023/09/12 13:28:25;;;;;;;26.17;23.65;;;;;;;-145.79;64.66;76076.03;5271844;28;20382;-74
2023/09/12 13:30:59;;;;;;;15.87;14.27;;;;;;;-145.79;64.00;76061.19;5272069;28;20051;-74
2023/09/12 13:33:31;;;;;;;15.82;14.27;;;;;;;-145.79;62.46;76042.13;5271790;28;20623;-74
2023/09/12 13:36:03;;;;;;;12.35;11.05;;;;;;;-145.79;60.71;76020.94;5272427;28;20021;-75
2023/09/12 13:38:35;;;;;;;12.48;11.10;;;;;;;-145.79;56.96;75995.50;5270831;28;20021;-74
2023/09/12 13:41:06;;;;;;;9.88;8.95;;;;;;;-145.79;56.35;75982.81;5274896;28;20024;-73
2023/09/12 13:43:37;;;;;;;9.63;8.65;;;;;;;-145.79;55.99;75957.38;5261648;28;20033;-73
2023/09/12 13:46:10;;;;;;;10.25;9.25;;;;;;;-145.79;55.45;75942.53;5260569;28;20032;-73
2023/09/12 13:48:41;;;;;;;11.02;9.95;;;;;;;-145.79;56.55;75940.41;5275661;28;20024;-74
2023/09/12 13:51:13;;;;;;;10.05;9.05;;;;;;;-145.79;55.80;75953.13;5263926;28;20535;-78
2023/09/12 13:53:44;;;;;;;10.82;9.70;;;;;;;-145.79;57.96;75953.13;5252216;28;20025;-78
2023/09/12 13:56:15;;;;;;;15.18;13.82;;;;;;;-145.79;57.25;75923.47;5271920;28;20395;-74
2023/09/12 13:58:48;;;;;;;11.82;8.57;;;;;;;-145.79;57.96;75940.41;5271435;28;20453;-75
2023/09/12 14:01:20;;;;;;;9.38;8.52;;;;;;;-145.79;56.27;75923.47;5267514;28;20029;-76
2023/09/12 14:03:53;;;;;;;10.95;8.05;;;;;;;-145.79;55.89;75921.34;5254155;28;20459;-78
2023/09/12 14:06:24;;;;;;;10.20;9.23;;;;;;;-145.79;55.20;75940.41;5269914;28;20040;-79
2023/09/12 14:08:55;;;;;;;9.98;8.68;;;;;;;-145.79;55.90;75931.94;5269140;28;20033;-72
2023/09/12 14:11:27;;;;;;;32.38;29.60;;;;;;;-145.79;56.62;75919.22;5255720;28;20392;-75
2023/09/12 14:13:58;;;;;;;21.08;19.08;;;;;;;-145.79;55.72;75908.63;5260256;28;20024;-75
2023/09/12 14:16:30;;;;;;;12.52;11.43;;;;;;;-145.79;55.66;75893.81;5270548;28;20032;-72
2023/09/12 14:19:01;;;;;;;15.55;14.05;;;;;;;-145.79;56.54;75900.16;5262398;28;20021;-74
2023/09/12 14:21:32;;;;;;;11.05;9.95;;;;;;;-145.79;57.48;75883.22;5261056;28;20412;-76
2023/09/12 14:24:05;;;;;;;10.18;9.27;;;;;;;-145.79;56.33;75889.56;5269751;28;21343;-76
2023/09/12 14:26:36;;;;;;;10.48;9.48;;;;;;;-145.79;56.19;75893.81;5264966;28;20033;-75
2023/09/12 14:29:08;;;;;;;10.25;9.32;;;;;;;-145.79;56.32;75878.97;5261523;28;20032;-76
2023/09/12 14:31:39;;;;;;;10.57;9.43;;;;;;;-145.79;55.15;75895.94;5273654;28;20420;-75
2023/09/12 14:34:10;;;;;;;10.68;9.68;;;;;;;-145.79;56.42;75902.28;5271093;28;20104;-74
2023/09/12 14:36:42;;;;;;;10.10;9.18;;;;;;;-145.79;55.78;75910.75;5273393;28;20116;-79
2023/09/12 14:39:14;;;;;;;9.23;8.30;;;;;;;-145.79;54.70;75915.00;5259808;28;20066;-77
2023/09/12 14:41:51;;;;;;;9.50;7.50;;;;;;;-145.79;54.47;75921.34;5272667;28;20028;-77
2023/09/12 14:44:23;;;;;;;9.98;9.02;;;;;;;-145.79;54.17;75904.41;5265912;28;20383;-79
2023/09/12 14:46:54;;;;;;;10.52;9.52;;;;;;;-145.79;54.09;75906.53;5271358;28;20120;-77
2023/09/12 14:49:26;;;;;;;12.27;9.40;;;;;;;-145.79;54.29;75900.16;5274370;28;20376;-75
2023/09/12 14:51:57;;;;;;;11.07;10.00;;;;;;;-145.79;53.75;75898.03;5273947;28;20031;-78
2023/09/12 14:54:29;;;;;;;11.07;9.63;;;;;;;-145.79;54.90;75906.53;5270647;28;20021;-75
2023/09/12 14:57:00;;;;;;;11.52;10.43;;;;;;;-145.79;54.65;75902.28;5269607;28;20025;-75
2023/09/12 14:59:31;;;;;;;9.98;9.07;;;;;;;-145.79;54.33;75889.56;5268464;28;20429;-75
2023/09/12 15:02:03;;;;;;;12.68;11.45;;;;;;;-145.79;56.76;75876.84;5266439;28;20029;-77
2023/09/12 15:04:34;;;;;;;9.00;8.10;;;;;;;-145.79;54.26;75872.63;5273850;28;20032;-75
2023/09/12 15:07:05;;;;;;;8.43;7.47;;;;;;;-145.79;54.51;75889.56;5274325;28;20033;-74
2023/09/12 15:09:37;;;;;;;9.43;8.45;;;;;;;-145.79;54.72;75891.69;5269743;28;20534;-69
2023/09/12 15:12:08;;;;;;;14.77;13.48;;;;;;;-145.79;53.41;75898.03;5269879;28;20047;-75
2023/09/12 15:14:40;;;;;;;22.70;20.45;;;;;;;-145.79;53.09;75904.41;5265104;28;20535;-75
2023/09/12 15:17:11;;;;;;;9.25;8.45;;;;;;;-145.79;53.20;75915.00;5272098;28;20035;-75
2023/09/12 15:19:42;;;;;;;7.72;7.03;;;;;;;-145.79;54.46;75917.13;5270354;28;20127;-75
2023/09/12 15:22:13;;;;;;;7.70;6.82;;;;;;;-145.79;54.73;75902.28;5269569;28;20048;-74
2023/09/12 15:24:45;;;;;;;8.10;7.30;;;;;;;-145.79;53.83;75915.00;5271802;28;20029;-74
2023/09/12 15:27:16;;;;;;;7.40;6.60;;;;;;;-145.79;53.24;75919.22;5273428;28;20495;-74
2023/09/12 15:29:49;;;;;;;7.68;6.72;;;;;;;-145.79;53.66;75923.47;5271256;28;20028;-73
2023/09/12 15:32:20;;;;;;;9.82;7.72;;;;;;;-145.79;54.06;75919.22;5268798;28;20074;-75
2023/09/12 15:34:52;;;;;;;9.30;8.40;;;;;;;-145.79;54.16;75925.59;5268732;28;20052;-74
2023/09/12 15:37:23;;;;;;;8.13;7.30;;;;;;;-145.79;54.60;75927.72;5273700;28;20017;-74
2023/09/12 15:39:55;;;;;;;8.32;7.47;;;;;;;-145.79;54.67;75921.34;5270826;28;20031;-75
2023/09/12 15:42:26;;;;;;;8.50;7.72;;;;;;;-145.79;54.56;75927.72;5268250;28;20025;-75
2023/09/12 15:44:57;;;;;;;9.20;8.32;;;;;;;-145.79;54.57;75940.41;5274493;28;20038;-75
2023/09/12 15:47:28;;;;;;;15.50;13.98;;;;;;;-145.79;54.71;75931.94;5277574;28;20380;-75
2023/09/12 15:50:00;;;;;;;10.48;9.27;;;;;;;-145.79;54.97;75940.41;5276576;28;20537;-74
2023/09/12 15:52:36;;;;;;;9.13;7.80;;;;;;;-145.79;55.49;75948.91;5267268;28;20124;-74
2023/09/12 15:55:10;;;;;;;8.70;7.88;;;;;;;-145.79;54.22;75965.84;5274015;28;20037;-77
2023/09/12 15:57:41;;;;;;;8.20;7.40;;;;;;;-145.79;54.99;75946.78;5277924;28;20574;-75
2023/09/12 16:00:13;;;;;;;8.43;7.70;;;;;;;-145.79;54.47;75955.25;5274977;28;20111;-75
2023/09/12 16:02:44;;;;;;;10.55;7.43;;;;;;;-145.79;53.99;75957.38;5273481;28;20086;-75
2023/09/12 16:05:16;;;;;;;8.45;7.35;;;;;;;-145.79;53.99;75972.22;5275125;28;20392;-75
2023/09/12 16:07:47;;;;;;;8.73;7.88;;;;;;;-145.79;54.47;75972.22;5270570;28;20388;-75
2023/09/12 16:10:19;;;;;;;66.82;61.17;;;;;;;-145.79;53.94;75970.09;5275152;28;20036;-74
2023/09/12 16:12:51;;;;;;;11.82;10.63;;;;;;;-145.79;54.68;75970.09;5277009;28;20059;-74
2023/09/12 16:15:22;;;;;;;8.32;7.50;;;;;;;-145.79;54.94;75970.09;5276409;28;20028;-72
2023/09/12 16:17:53;;;;;;;10.35;8.88;;;;;;;-145.79;55.81;75982.81;5273189;28;20024;-70
2023/09/12 16:20:25;;;;;;;10.18;7.65;;;;;;;-145.79;55.72;75974.31;5272979;28;20028;-74
2023/09/12 16:22:56;;;;;;;11.55;8.68;;;;;;;-145.79;55.51;75974.31;5276945;28;20052;-74
2023/09/12 16:25:27;;;;;;;8.20;7.07;;;;;;;-145.79;55.70;75980.69;5275525;28;20055;-74
2023/09/12 16:27:58;;;;;;;8.63;7.25;;;;;;;-145.79;55.86;75976.44;5272105;28;20025;-73
2023/09/12 16:30:30;;;;;;;8.82;8.05;;;;;;;-145.79;55.99;75982.81;5273418;28;20456;-74
2023/09/12 16:33:01;;;;;;;7.70;6.93;;;;;;;-145.79;56.56;75980.69;5264401;28;20029;-74
2023/09/12 16:35:33;;;;;;;9.40;7.88;;;;;;;-145.79;57.01;75991.28;5272820;28;20025;-74
2023/09/12 16:38:04;;;;;;;10.23;7.35;;;;;;;-145.79;57.61;75995.50;5276753;28;20035;-74
2023/09/12 16:40:39;;;;;;;8.40;7.60;;;;;;;-145.79;58.37;75997.63;5277481;28;20020;-74
2023/09/12 16:43:10;;;;;;;8.52;7.78;;;;;;;-145.79;58.87;76008.22;5268103;28;20040;-75
2023/09/12 16:45:41;;;;;;;7.85;7.05;;;;;;;-145.79;59.53;76012.47;5273137;28;20029;-75
2023/09/12 16:48:12;;;;;;;8.85;6.93;;;;;;;-145.79;60.04;76010.34;5275514;28;20434;-74
2023/09/12 16:50:47;;;;;;;7.90;7.13;;;;;;;-145.79;60.71;76033.66;5276919;28;20020;-73
2023/09/12 16:53:18;;;;;;;9.23;8.40;;;;;;;-145.79;60.44;76027.28;5272716;28;20083;-74
